PWSweather.com
Personal Weather Stations
Station Observations
KVTSWANT6
Maquam ShoreCamp Maquam, Swanton, VT 05488

Maquam ShoreCamp MaquamSwanton, VT 05488

Lat: 44.90250015, Lon: -73.16666412

Elevation: 109

Station Type: W-1090

Latest ConditionsUpdated 3:00:01 PM EDT Wednesday, Apr 16, 2014
Currently Today's Max Today's Min Today's Average
Temperature 30.2°F-1.0°C 30.2°F-1.0°C 21.2°F-6.0°C 24.1°F-4.4°C
Dew Point 17.2°F-8.2°C 25.5°F-3.6°C 11.4°F-11.4°C 16.5°F-8.6°C
Winds 10.7 mph NW17.2 kmh NW 16.8 mph NW27.0 kmh NW - 11.7 mph 18.8 kmh
Wind Gusts 14.5 mph23.3 kmh 25.9 mph41.7 kmh - -
Humidity 58% 99% 52% 73%
Pressure 30.87 in1045.4 mb 30.87 in1045.4 mb 30.31 in1026.4 mb -
Hour Temp Dew Point Humidity Winds Wind Gusts Pressure Precip Precip Rate Daily Precip Total
03:00 PM 30.2°F-1.0°C 17.2°F-8.2°C 58% 10.7 mph NW17.2 kmh NW 14.5 mph23.3 kmh 30.87 in1045.4 mb 0.00 in0.0 mm 0.00 in/hr0.0 mm/hr 0.00 in0.0 mm
02:50 PM 29.5°F-1.4°C 15.3°F-9.3°C 55% 6.9 mph NW11.1 kmh NW 13.6 mph21.9 kmh 30.87 in1045.4 mb 0.00 in0.0 mm 0.00 in/hr0.0 mm/hr 0.00 in0.0 mm
02:40 PM 28.8°F-1.8°C 13.4°F-10.3°C 52% 7.6 mph NW12.2 kmh NW 14.5 mph23.3 kmh 30.87 in1045.4 mb 0.00 in0.0 mm 0.00 in/hr0.0 mm/hr 0.00 in0.0 mm
02:30 PM 28.9°F-1.7°C 14.8°F-9.6°C 55% 6.9 mph NW11.1 kmh NW 13.6 mph21.9 kmh 30.87 in1045.4 mb 0.00 in0.0 mm 0.00 in/hr0.0 mm/hr 0.00 in0.0 mm
02:20 PM 29.1°F-1.6°C 15.8°F-9.0°C 57% 9.8 mph NW15.8 kmh NW 12.1 mph19.5 kmh 30.87 in1045.4 mb 0.00 in0.0 mm 0.00 in/hr0.0 mm/hr 0.00 in0.0 mm
02:10 PM 28.4°F-2.0°C 14.7°F-9.6°C 56% 7.6 mph NW12.2 kmh NW 12.1 mph19.5 kmh 30.86 in1045.0 mb 0.00 in0.0 mm 0.00 in/hr0.0 mm/hr 0.00 in0.0 mm
02:00 PM 28.0°F-2.2°C 14.8°F-9.6°C 57% 7.6 mph NW12.2 kmh NW 13.6 mph21.9 kmh 30.86 in1045.0 mb 0.00 in0.0 mm 0.00 in/hr0.0 mm/hr 0.00 in0.0 mm
01:50 PM 27.7°F-2.4°C 14.9°F-9.5°C 58% 11.4 mph NW18.3 kmh NW 15.9 mph25.6 kmh 30.86 in1045.0 mb 0.00 in0.0 mm 0.00 in/hr0.0 mm/hr 0.00 in0.0 mm
01:40 PM 28.0°F-2.2°C 14.4°F-9.8°C 56% 9.2 mph NW14.8 kmh NW 15.2 mph24.5 kmh 30.85 in1044.7 mb 0.00 in0.0 mm 0.00 in/hr0.0 mm/hr 0.00 in0.0 mm
01:30 PM 27.3°F-2.6°C 15.3°F-9.3°C 60% 12.1 mph NNW19.5 kmh NNW 15.2 mph24.5 kmh 30.85 in1044.7 mb 0.00 in0.0 mm 0.00 in/hr0.0 mm/hr 0.00 in0.0 mm
01:20 PM 26.8°F-2.9°C 15.2°F-9.3°C 61% 10.7 mph NW17.2 kmh NW 19.0 mph30.6 kmh 30.85 in1044.7 mb 0.00 in0.0 mm 0.00 in/hr0.0 mm/hr 0.00 in0.0 mm
01:10 PM 26.8°F-2.9°C 13.2°F-10.4°C 56% 9.2 mph NW14.8 kmh NW 13.0 mph20.9 kmh 30.84 in1044.4 mb 0.00 in0.0 mm 0.00 in/hr0.0 mm/hr 0.00 in0.0 mm
01:00 PM 26.2°F-3.2°C 13.1°F-10.5°C 57% 9.8 mph NW15.8 kmh NW 16.8 mph27.0 kmh 30.84 in1044.4 mb 0.00 in0.0 mm 0.00 in/hr0.0 mm/hr 0.00 in0.0 mm
12:50 PM 26.1°F-3.3°C 13.3°F-10.4°C 58% 13.0 mph NW20.9 kmh NW 19.0 mph30.6 kmh 30.84 in1044.4 mb 0.00 in0.0 mm 0.00 in/hr0.0 mm/hr 0.00 in0.0 mm
12:40 PM 26.4°F-3.1°C 13.7°F-10.2°C 58% 8.3 mph NW13.4 kmh NW 17.4 mph28.0 kmh 30.84 in1044.4 mb 0.00 in0.0 mm 0.00 in/hr0.0 mm/hr 0.00 in0.0 mm
12:30 PM 26.2°F-3.2°C 13.9°F-10.1°C 59% 9.2 mph NW14.8 kmh NW 17.4 mph28.0 kmh 30.84 in1044.4 mb 0.00 in0.0 mm 0.00 in/hr0.0 mm/hr 0.00 in0.0 mm
12:20 PM 27.3°F-2.6°C 15.3°F-9.3°C 60% 10.7 mph NW17.2 kmh NW 15.9 mph25.6 kmh 30.83 in1044.0 mb 0.00 in0.0 mm 0.00 in/hr0.0 mm/hr 0.00 in0.0 mm
12:10 PM 25.5°F-3.6°C 12.8°F-10.7°C 58% 9.8 mph NW15.8 kmh NW 13.6 mph21.9 kmh 30.82 in1043.7 mb 0.00 in0.0 mm 0.00 in/hr0.0 mm/hr 0.00 in0.0 mm
12:00 PM 25.0°F-3.9°C 12.3°F-10.9°C 58% 9.8 mph NW15.8 kmh NW 17.4 mph28.0 kmh 30.82 in1043.7 mb 0.00 in0.0 mm 0.00 in/hr0.0 mm/hr 0.00 in0.0 mm
11:50 AM 24.8°F-4.0°C 13.7°F-10.2°C 62% 13.0 mph NW20.9 kmh NW 20.6 mph33.2 kmh 30.81 in1043.3 mb 0.00 in0.0 mm 0.00 in/hr0.0 mm/hr 0.00 in0.0 mm
11:40 AM 23.9°F-4.5°C 11.7°F-11.3°C 59% 11.4 mph NW18.3 kmh NW 19.7 mph31.7 kmh 30.81 in1043.3 mb 0.00 in0.0 mm 0.00 in/hr0.0 mm/hr 0.00 in0.0 mm
11:30 AM 24.3°F-4.3°C 13.2°F-10.4°C 62% 13.0 mph NW20.9 kmh NW 16.8 mph27.0 kmh 30.80 in1043.0 mb 0.00 in0.0 mm 0.00 in/hr0.0 mm/hr 0.00 in0.0 mm
11:20 AM 24.3°F-4.3°C 12.4°F-10.9°C 60% 10.7 mph NNW17.2 kmh NNW 20.6 mph33.2 kmh 30.79 in1042.7 mb 0.00 in0.0 mm 0.00 in/hr0.0 mm/hr 0.00 in0.0 mm
11:10 AM 23.7°F-4.6°C 12.3°F-10.9°C 61% 15.2 mph NW24.5 kmh NW 20.6 mph33.2 kmh 30.80 in1043.0 mb 0.00 in0.0 mm 0.00 in/hr0.0 mm/hr 0.00 in0.0 mm
11:00 AM 23.9°F-4.5°C 13.2°F-10.4°C 63% 12.1 mph NW19.5 kmh NW 18.3 mph29.5 kmh 30.79 in1042.7 mb 0.00 in0.0 mm 0.00 in/hr0.0 mm/hr 0.00 in0.0 mm
10:50 AM 23.5°F-4.7°C 12.1°F-11.1°C 61% 12.1 mph NW19.5 kmh NW 19.7 mph31.7 kmh 30.79 in1042.7 mb 0.00 in0.0 mm 0.00 in/hr0.0 mm/hr 0.00 in0.0 mm
10:40 AM 23.2°F-4.9°C 11.4°F-11.4°C 60% 13.6 mph NW21.9 kmh NW 19.0 mph30.6 kmh 30.79 in1042.7 mb 0.00 in0.0 mm 0.00 in/hr0.0 mm/hr 0.00 in0.0 mm
10:30 AM 23.4°F-4.8°C 12.7°F-10.7°C 63% 12.1 mph NW19.5 kmh NW 19.0 mph30.6 kmh 30.78 in1042.3 mb 0.00 in0.0 mm 0.00 in/hr0.0 mm/hr 0.00 in0.0 mm
10:20 AM 23.2°F-4.9°C 12.9°F-10.6°C 64% 12.1 mph NW19.5 kmh NW 19.7 mph31.7 kmh 30.78 in1042.3 mb 0.00 in0.0 mm 0.00 in/hr0.0 mm/hr 0.00 in0.0 mm
10:10 AM 23.5°F-4.7°C 13.2°F-10.4°C 64% 10.7 mph NW17.2 kmh NW 17.4 mph28.0 kmh 30.77 in1042.0 mb 0.00 in0.0 mm 0.00 in/hr0.0 mm/hr 0.00 in0.0 mm
10:00 AM 23.4°F-4.8°C 13.4°F-10.3°C 65% 10.7 mph NW17.2 kmh NW 15.9 mph25.6 kmh 30.76 in1041.7 mb 0.00 in0.0 mm 0.00 in/hr0.0 mm/hr 0.00 in0.0 mm
09:50 AM 22.6°F-5.2°C 12.0°F-11.1°C 63% 9.8 mph NW15.8 kmh NW 21.3 mph34.3 kmh 30.76 in1041.7 mb 0.00 in0.0 mm 0.00 in/hr0.0 mm/hr 0.00 in0.0 mm
09:40 AM 22.3°F-5.4°C 12.4°F-10.9°C 65% 11.4 mph NW18.3 kmh NW 19.7 mph31.7 kmh 30.75 in1041.3 mb 0.00 in0.0 mm 0.00 in/hr0.0 mm/hr 0.00 in0.0 mm
09:30 AM 22.5°F-5.3°C 12.5°F-10.8°C 65% 13.0 mph NW20.9 kmh NW 20.6 mph33.2 kmh 30.75 in1041.3 mb 0.00 in0.0 mm 0.00 in/hr0.0 mm/hr 0.00 in0.0 mm
09:20 AM 22.3°F-5.4°C 11.6°F-11.3°C 63% 13.6 mph NW21.9 kmh NW 22.1 mph35.6 kmh 30.74 in1041.0 mb 0.00 in0.0 mm 0.00 in/hr0.0 mm/hr 0.00 in0.0 mm
09:10 AM 21.9°F-5.6°C 12.0°F-11.1°C 65% 14.5 mph NW23.3 kmh NW 20.6 mph33.2 kmh 30.73 in1040.6 mb 0.00 in0.0 mm 0.00 in/hr0.0 mm/hr 0.00 in0.0 mm
09:00 AM 22.3°F-5.4°C 12.7°F-10.7°C 66% 12.1 mph NW19.5 kmh NW 20.6 mph33.2 kmh 30.72 in1040.3 mb 0.00 in0.0 mm 0.00 in/hr0.0 mm/hr 0.00 in0.0 mm
08:50 AM 22.3°F-5.4°C 12.7°F-10.7°C 66% 11.4 mph NW18.3 kmh NW 19.0 mph30.6 kmh 30.71 in1040.0 mb 0.00 in0.0 mm 0.00 in/hr0.0 mm/hr 0.00 in0.0 mm
08:40 AM 22.5°F-5.3°C 13.2°F-10.4°C 67% 11.4 mph NW18.3 kmh NW 17.4 mph28.0 kmh 30.70 in1039.6 mb 0.00 in0.0 mm 0.00 in/hr0.0 mm/hr 0.00 in0.0 mm
08:30 AM 22.8°F-5.1°C 13.9°F-10.1°C 68% 10.7 mph NW17.2 kmh NW 17.4 mph28.0 kmh 30.70 in1039.6 mb 0.00 in0.0 mm 0.00 in/hr0.0 mm/hr 0.00 in0.0 mm
08:20 AM 21.9°F-5.6°C 13.4°F-10.3°C 69% 12.1 mph NW19.5 kmh NW 21.3 mph34.3 kmh 30.69 in1039.3 mb 0.00 in0.0 mm 0.00 in/hr0.0 mm/hr 0.00 in0.0 mm
08:10 AM 21.6°F-5.8°C 12.7°F-10.7°C 68% 14.5 mph NW23.3 kmh NW 25.1 mph40.4 kmh 30.68 in1038.9 mb 0.00 in0.0 mm 0.00 in/hr0.0 mm/hr 0.00 in0.0 mm
08:00 AM 21.4°F-5.9°C 12.8°F-10.7°C 69% 13.0 mph NW20.9 kmh NW 18.3 mph29.5 kmh 30.67 in1038.6 mb 0.00 in0.0 mm 0.00 in/hr0.0 mm/hr 0.00 in0.0 mm
07:50 AM 21.4°F-5.9°C 12.5°F-10.8°C 68% 12.1 mph NW19.5 kmh NW 22.1 mph35.6 kmh 30.66 in1038.3 mb 0.00 in0.0 mm 0.00 in/hr0.0 mm/hr 0.00 in0.0 mm
07:40 AM 21.4°F-5.9°C 13.5°F-10.3°C 71% 13.0 mph NW20.9 kmh NW 21.3 mph34.3 kmh 30.65 in1037.9 mb 0.00 in0.0 mm 0.00 in/hr0.0 mm/hr 0.00 in0.0 mm
07:30 AM 21.6°F-5.8°C 14.0°F-10.0°C 72% 14.5 mph NW23.3 kmh NW 19.7 mph31.7 kmh 30.64 in1037.6 mb 0.00 in0.0 mm 0.00 in/hr0.0 mm/hr 0.00 in0.0 mm
07:20 AM 21.4°F-5.9°C 14.1°F-9.9°C 73% 12.1 mph NW19.5 kmh NW 19.0 mph30.6 kmh 30.62 in1036.9 mb 0.00 in0.0 mm 0.00 in/hr0.0 mm/hr 0.00 in0.0 mm
07:10 AM 21.2°F-6.0°C 13.6°F-10.2°C 72% 13.6 mph NW21.9 kmh NW 19.0 mph30.6 kmh 30.61 in1036.6 mb 0.00 in0.0 mm 0.00 in/hr0.0 mm/hr 0.00 in0.0 mm
07:00 AM 21.2°F-6.0°C 13.9°F-10.1°C 73% 11.4 mph NW18.3 kmh NW 17.4 mph28.0 kmh 30.60 in1036.2 mb 0.00 in0.0 mm 0.00 in/hr0.0 mm/hr 0.00 in0.0 mm
06:50 AM 21.4°F-5.9°C 14.4°F-9.8°C 74% 12.1 mph NW19.5 kmh NW 16.8 mph27.0 kmh 30.59 in1035.9 mb 0.00 in0.0 mm 0.00 in/hr0.0 mm/hr 0.00 in0.0 mm
06:40 AM 21.4°F-5.9°C 14.7°F-9.6°C 75% 13.0 mph NW20.9 kmh NW 19.0 mph30.6 kmh 30.59 in1035.9 mb 0.00 in0.0 mm 0.00 in/hr0.0 mm/hr 0.00 in0.0 mm
06:30 AM 21.6°F-5.8°C 14.6°F-9.7°C 74% 11.4 mph NW18.3 kmh NW 19.7 mph31.7 kmh 30.59 in1035.9 mb 0.00 in0.0 mm 0.00 in/hr0.0 mm/hr 0.00 in0.0 mm
06:20 AM 21.9°F-5.6°C 15.0°F-9.4°C 74% 13.0 mph NW20.9 kmh NW 18.3 mph29.5 kmh 30.59 in1035.9 mb 0.00 in0.0 mm 0.00 in/hr0.0 mm/hr 0.00 in0.0 mm
06:10 AM 22.3°F-5.4°C 16.5°F-8.6°C 78% 13.0 mph NW20.9 kmh NW 18.3 mph29.5 kmh 30.58 in1035.6 mb 0.00 in0.0 mm 0.00 in/hr0.0 mm/hr 0.00 in0.0 mm
06:00 AM 22.6°F-5.2°C 17.4°F-8.1°C 80% 12.1 mph NW19.5 kmh NW 15.9 mph25.6 kmh 30.57 in1035.2 mb 0.00 in0.0 mm 0.00 in/hr0.0 mm/hr 0.00 in0.0 mm
05:50 AM 22.5°F-5.3°C 17.3°F-8.2°C 80% 9.8 mph NW15.8 kmh NW 15.2 mph24.5 kmh 30.58 in1035.6 mb 0.00 in0.0 mm 0.00 in/hr0.0 mm/hr 0.00 in0.0 mm
05:40 AM 22.8°F-5.1°C 17.0°F-8.3°C 78% 11.4 mph NW18.3 kmh NW 15.2 mph24.5 kmh 30.55 in1034.5 mb 0.00 in0.0 mm 0.00 in/hr0.0 mm/hr 0.00 in0.0 mm
05:30 AM 23.0°F-5.0°C 17.5°F-8.1°C 79% 7.6 mph NW12.2 kmh NW 17.4 mph28.0 kmh 30.54 in1034.2 mb 0.00 in0.0 mm 0.00 in/hr0.0 mm/hr 0.00 in0.0 mm
05:20 AM 22.8°F-5.1°C 18.2°F-7.7°C 82% 7.6 mph NW12.2 kmh NW 16.8 mph27.0 kmh 30.51 in1033.2 mb 0.00 in0.0 mm 0.00 in/hr0.0 mm/hr 0.00 in0.0 mm
05:10 AM 23.2°F-4.9°C 18.3°F-7.6°C 81% 12.1 mph NW19.5 kmh NW 16.8 mph27.0 kmh 30.47 in1031.8 mb 0.00 in0.0 mm 0.00 in/hr0.0 mm/hr 0.00 in0.0 mm
05:00 AM 23.0°F-5.0°C 17.8°F-7.9°C 80% 9.8 mph NW15.8 kmh NW 15.9 mph25.6 kmh 30.47 in1031.8 mb 0.00 in0.0 mm 0.00 in/hr0.0 mm/hr 0.00 in0.0 mm
04:50 AM 23.0°F-5.0°C 17.8°F-7.9°C 80% 13.0 mph NW20.9 kmh NW 22.1 mph35.6 kmh 30.47 in1031.8 mb 0.00 in0.0 mm 0.00 in/hr0.0 mm/hr 0.00 in0.0 mm
04:40 AM 23.2°F-4.9°C 17.7°F-7.9°C 79% 13.0 mph NW20.9 kmh NW 19.7 mph31.7 kmh 30.47 in1031.8 mb 0.00 in0.0 mm 0.00 in/hr0.0 mm/hr 0.00 in0.0 mm
04:30 AM 23.4°F-4.8°C 17.8°F-7.9°C 79% 14.5 mph NW23.3 kmh NW 22.1 mph35.6 kmh 30.46 in1031.5 mb 0.00 in0.0 mm 0.00 in/hr0.0 mm/hr 0.00 in0.0 mm
04:20 AM 23.5°F-4.7°C 17.7°F-7.9°C 78% 13.0 mph NW20.9 kmh NW 20.6 mph33.2 kmh 30.45 in1031.2 mb 0.00 in0.0 mm 0.00 in/hr0.0 mm/hr 0.00 in0.0 mm
04:10 AM 23.7°F-4.6°C 17.6°F-8.0°C 77% 13.6 mph NW21.9 kmh NW 22.1 mph35.6 kmh 30.46 in1031.5 mb 0.00 in0.0 mm 0.00 in/hr0.0 mm/hr 0.00 in0.0 mm
04:00 AM 23.9°F-4.5°C 18.4°F-7.6°C 79% 15.9 mph WNW25.6 kmh WNW 22.1 mph35.6 kmh 30.44 in1030.8 mb 0.00 in0.0 mm 0.00 in/hr0.0 mm/hr 0.00 in0.0 mm
03:50 AM 23.9°F-4.5°C 18.1°F-7.7°C 78% 14.5 mph NW23.3 kmh NW 21.3 mph34.3 kmh 30.44 in1030.8 mb 0.00 in0.0 mm 0.00 in/hr0.0 mm/hr 0.00 in0.0 mm
03:40 AM 24.1°F-4.4°C 19.1°F-7.2°C 81% 10.7 mph NW17.2 kmh NW 15.2 mph24.5 kmh 30.45 in1031.2 mb 0.00 in0.0 mm 0.00 in/hr0.0 mm/hr 0.00 in0.0 mm
03:30 AM 24.1°F-4.4°C 19.1°F-7.2°C 81% 9.2 mph NW14.8 kmh NW 16.8 mph27.0 kmh 30.45 in1031.2 mb 0.00 in0.0 mm 0.00 in/hr0.0 mm/hr 0.00 in0.0 mm
03:20 AM 24.1°F-4.4°C 20.0°F-6.7°C 84% 12.1 mph NW19.5 kmh NW 19.7 mph31.7 kmh 30.45 in1031.2 mb 0.00 in0.0 mm 0.00 in/hr0.0 mm/hr 0.00 in0.0 mm
03:10 AM 24.1°F-4.4°C 19.7°F-6.8°C 83% 15.2 mph NW24.5 kmh NW 20.6 mph33.2 kmh 30.42 in1030.1 mb 0.00 in0.0 mm 0.00 in/hr0.0 mm/hr 0.00 in0.0 mm
03:00 AM 24.3°F-4.3°C 20.7°F-6.3°C 86% 10.7 mph NNW17.2 kmh NNW 21.3 mph34.3 kmh 30.42 in1030.1 mb 0.00 in0.0 mm 0.00 in/hr0.0 mm/hr 0.00 in0.0 mm
02:50 AM 24.3°F-4.3°C 20.7°F-6.3°C 86% 14.5 mph NW23.3 kmh NW 19.0 mph30.6 kmh 30.43 in1030.5 mb 0.00 in0.0 mm 0.00 in/hr0.0 mm/hr 0.00 in0.0 mm
02:40 AM 23.9°F-4.5°C 20.4°F-6.4°C 86% 13.0 mph NW20.9 kmh NW 24.4 mph39.3 kmh 30.40 in1029.5 mb 0.00 in0.0 mm 0.00 in/hr0.0 mm/hr 0.00 in0.0 mm
02:30 AM 23.7°F-4.6°C 20.4°F-6.4°C 87% 16.8 mph NW27.0 kmh NW 24.4 mph39.3 kmh 30.40 in1029.5 mb 0.00 in0.0 mm 0.00 in/hr0.0 mm/hr 0.00 in0.0 mm
02:20 AM 23.9°F-4.5°C 21.9°F-5.6°C 92% 15.2 mph NW24.5 kmh NW 25.9 mph41.7 kmh 30.39 in1029.1 mb 0.00 in0.0 mm 0.00 in/hr0.0 mm/hr 0.00 in0.0 mm
02:10 AM 23.9°F-4.5°C 22.5°F-5.3°C 94% 13.0 mph NW20.9 kmh NW 20.6 mph33.2 kmh 30.39 in1029.1 mb 0.00 in0.0 mm 0.00 in/hr0.0 mm/hr 0.00 in0.0 mm
02:00 AM 24.1°F-4.4°C 23.1°F-4.9°C 96% 13.0 mph W20.9 kmh W 20.6 mph33.2 kmh 30.39 in1029.1 mb 0.00 in0.0 mm 0.00 in/hr0.0 mm/hr 0.00 in0.0 mm
01:50 AM 24.3°F-4.3°C 23.6°F-4.7°C 97% 11.4 mph NW18.3 kmh NW 20.6 mph33.2 kmh 30.38 in1028.8 mb 0.00 in0.0 mm 0.00 in/hr0.0 mm/hr 0.00 in0.0 mm
01:40 AM 24.1°F-4.4°C 23.1°F-4.9°C 96% 12.1 mph NW19.5 kmh NW 19.0 mph30.6 kmh 30.38 in1028.8 mb 0.00 in0.0 mm 0.00 in/hr0.0 mm/hr 0.00 in0.0 mm
01:30 AM 24.3°F-4.3°C 23.6°F-4.7°C 97% 11.4 mph NW18.3 kmh NW 17.4 mph28.0 kmh 30.38 in1028.8 mb 0.00 in0.0 mm 0.00 in/hr0.0 mm/hr 0.00 in0.0 mm
01:20 AM 24.3°F-4.3°C 23.8°F-4.6°C 98% 10.7 mph NW17.2 kmh NW 19.0 mph30.6 kmh 30.37 in1028.4 mb 0.00 in0.0 mm 0.00 in/hr0.0 mm/hr 0.00 in0.0 mm
01:10 AM 24.4°F-4.2°C 23.7°F-4.6°C 97% 10.7 mph NW17.2 kmh NW 22.1 mph35.6 kmh 30.36 in1028.1 mb 0.00 in0.0 mm 0.00 in/hr0.0 mm/hr 0.00 in0.0 mm
01:00 AM 24.6°F-4.1°C 24.4°F-4.2°C 99% 11.4 mph NW18.3 kmh NW 18.3 mph29.5 kmh 30.34 in1027.4 mb 0.00 in0.0 mm 0.00 in/hr0.0 mm/hr 0.00 in0.0 mm
12:50 AM 24.8°F-4.0°C 24.6°F-4.1°C 99% 15.2 mph NW24.5 kmh NW 21.3 mph34.3 kmh 30.34 in1027.4 mb 0.00 in0.0 mm 0.00 in/hr0.0 mm/hr 0.00 in0.0 mm
12:40 AM 25.0°F-3.9°C 24.8°F-4.0°C 99% 15.2 mph NW24.5 kmh NW 20.6 mph33.2 kmh 30.33 in1027.1 mb 0.00 in0.0 mm 0.00 in/hr0.0 mm/hr 0.00 in0.0 mm
12:30 AM 25.2°F-3.8°C 24.9°F-3.9°C 99% 9.2 mph NW14.8 kmh NW 18.3 mph29.5 kmh 30.34 in1027.4 mb 0.00 in0.0 mm 0.00 in/hr0.0 mm/hr 0.00 in0.0 mm
12:20 AM 25.5°F-3.6°C 25.3°F-3.7°C 99% 10.7 mph NW17.2 kmh NW 15.9 mph25.6 kmh 30.32 in1026.8 mb 0.00 in0.0 mm 0.00 in/hr0.0 mm/hr 0.00 in0.0 mm
12:10 AM 25.7°F-3.5°C 25.5°F-3.6°C 99% 9.8 mph NW15.8 kmh NW 15.9 mph25.6 kmh 30.31 in1026.4 mb 0.00 in0.0 mm 0.00 in/hr0.0 mm/hr 0.00 in0.0 mm
12:00 AM 25.5°F-3.6°C 25.3°F-3.7°C 99% 9.2 mph NW14.8 kmh NW 15.2 mph24.5 kmh 30.33 in1027.1 mb 0.00 in0.0 mm 0.00 in/hr0.0 mm/hr 0.00 in0.0 mm